Time;durP1;ratioP1;P1;durP2;ratioP2;P2;SDS_P1;SDS_P2;PMS_P1;PMS_P2;Temp;Humidity;BMP_temperature;BMP_pressure;BME280_temperature;BME280_humidity;BME280_pressure;Samples;Min_cycle;Max_cycle;Signal;HPM_P1;HPM_P2
2022/09/27 00:01:16;;;;;;;16.33;6.15;;;10.30;99.90;;;;;;7392960;32;20142;-60
2022/09/27 00:05:18;;;;;;;12.18;4.55;;;10.20;99.90;;;;;;7391849;32;20168;-61
2022/09/27 00:09:19;;;;;;;16.85;3.15;;;10.10;99.90;;;;;;7392949;32;20455;-60
2022/09/27 00:13:21;;;;;;;4.70;2.20;;;10.10;99.90;;;;;;7397310;32;20186;-61
2022/09/27 00:17:23;;;;;;;8.02;2.50;;;10.00;99.90;;;;;;7395046;32;20133;-61
2022/09/27 00:21:25;;;;;;;7.40;2.12;;;10.00;99.90;;;;;;7389815;32;20473;-60
2022/09/27 00:25:26;;;;;;;5.50;1.50;;;10.10;99.90;;;;;;7390546;32;20123;-62
2022/09/27 00:29:28;;;;;;;8.38;1.27;;;10.00;99.90;;;;;;7387108;32;20867;-62
2022/09/27 00:33:30;;;;;;;4.15;1.10;;;10.00;99.90;;;;;;7398234;32;20132;-61
2022/09/27 00:37:32;;;;;;;8.70;2.05;;;9.90;99.90;;;;;;7393447;32;20114;-61
2022/09/27 00:41:36;;;;;;;10.20;1.50;;;9.90;99.90;;;;;;7397789;32;20228;-60
2022/09/27 00:45:37;;;;;;;7.40;1.95;;;10.20;99.90;;;;;;7392764;32;20098;-60
2022/09/27 00:49:51;;;;;;;5.55;1.85;;;10.00;99.90;;;;;;7396915;32;20668;-63
2022/09/27 00:53:56;;;;;;;5.85;1.83;;;10.00;99.90;;;;;;7396588;32;20110;-61
2022/09/27 00:57:58;;;;;;;7.03;2.50;;;10.10;99.90;;;;;;7377084;32;20134;-60
2022/09/27 01:02:03;;;;;;;10.98;3.10;;;10.10;99.90;;;;;;7396304;32;20107;-63
2022/09/27 01:06:06;;;;;;;12.88;4.35;;;10.10;99.90;;;;;;7399229;32;20132;-61
2022/09/27 01:10:09;;;;;;;8.98;3.80;;;10.10;99.90;;;;;;7396632;32;20730;-61
2022/09/27 01:14:44;;;;;;;10.95;4.53;;;10.10;99.90;;;;;;7401882;32;20269;-60
2022/09/27 01:19:04;;;;;;;10.32;3.53;;;10.10;99.90;;;;;;7397381;32;20616;-60
2022/09/27 01:23:09;;;;;;;10.02;4.43;;;10.00;99.90;;;;;;7395429;32;20141;-60
2022/09/27 01:27:32;;;;;;;9.57;3.70;;;10.10;99.90;;;;;;7400966;32;20106;-62
2022/09/27 01:31:40;;;;;;;12.65;3.50;;;10.00;99.90;;;;;;7393487;32;20232;-61
2022/09/27 01:35:59;;;;;;;8.70;3.60;;;10.00;99.90;;;;;;7396449;32;20213;-60
2022/09/27 01:40:12;;;;;;;6.68;3.10;;;10.00;99.90;;;;;;7394727;32;20657;-60
2022/09/27 01:44:32;;;;;;;8.43;3.33;;;10.00;99.90;;;;;;7395661;32;20638;-61
2022/09/27 01:48:42;;;;;;;8.82;3.15;;;10.00;99.90;;;;;;7397182;31;20374;-61
2022/09/27 01:53:00;;;;;;;7.97;3.60;;;10.00;99.90;;;;;;7391255;32;20106;-61
2022/09/27 01:57:04;;;;;;;14.93;3.72;;;9.90;99.90;;;;;;7399394;32;20232;-62
2022/09/27 02:01:08;;;;;;;8.75;4.00;;;9.90;99.90;;;;;;7399575;32;20198;-60
2022/09/27 02:05:13;;;;;;;7.40;3.50;;;9.90;99.90;;;;;;7395306;32;20644;-63
2022/09/27 02:09:24;;;;;;;7.55;3.58;;;9.90;99.90;;;;;;7387350;32;20130;-60
2022/09/27 02:14:12;;;;;;;9.25;3.72;;;9.80;99.90;;;;;;7403592;31;20114;-60
2022/09/27 02:18:17;;;;;;;6.62;3.78;;;9.90;99.90;;;;;;7384582;32;20150;-60
2022/09/27 02:22:37;;;;;;;10.82;4.43;;;9.90;99.90;;;;;;7396047;32;20111;-61
2022/09/27 02:26:42;;;;;;;8.48;4.20;;;9.90;99.90;;;;;;7375300;32;20126;-63
2022/09/27 02:30:44;;;;;;;10.30;5.12;;;9.90;99.90;;;;;;7394773;32;20129;-60
2022/09/27 02:34:48;;;;;;;9.02;4.00;;;9.90;99.90;;;;;;7400356;32;20498;-61
2022/09/27 02:38:50;;;;;;;8.82;3.97;;;9.90;99.90;;;;;;7395196;32;20144;-61
2022/09/27 02:42:52;;;;;;;7.45;4.25;;;10.00;99.90;;;;;;7393546;32;20201;-62
2022/09/27 02:47:21;;;;;;;9.52;4.70;;;9.90;99.90;;;;;;7396498;32;20130;-61
2022/09/27 02:51:46;;;;;;;8.70;4.75;;;9.90;99.90;;;;;;7394684;32;20107;-61
2022/09/27 02:55:50;;;;;;;7.55;4.90;;;9.90;99.90;;;;;;7398766;32;20255;-60
2022/09/27 03:00:05;;;;;;;12.07;5.05;;;9.90;99.90;;;;;;7396311;32;20266;-62
2022/09/27 03:04:29;;;;;;;9.18;4.75;;;9.80;99.90;;;;;;7384628;32;20515;-61
2022/09/27 03:08:31;;;;;;;8.93;4.57;;;9.80;99.90;;;;;;7395260;32;20111;-61
2022/09/27 03:12:32;;;;;;;7.82;4.12;;;9.80;99.90;;;;;;7397134;32;20203;-60
2022/09/27 03:16:34;;;;;;;10.73;3.75;;;9.80;99.90;;;;;;7400804;32;20562;-61
2022/09/27 03:20:36;;;;;;;8.45;3.25;;;9.80;99.90;;;;;;7386549;32;20107;-60
2022/09/27 03:24:38;;;;;;;7.25;3.65;;;9.80;99.90;;;;;;7396508;32;20106;-61
2022/09/27 03:28:39;;;;;;;12.20;4.50;;;9.80;99.90;;;;;;7393102;32;20482;-60
2022/09/27 03:32:45;;;;;;;8.10;4.07;;;9.80;99.90;;;;;;7395999;32;20218;-61
2022/09/27 03:36:46;;;;;;;7.10;4.10;;;9.80;99.90;;;;;;7391218;32;20167;-61
2022/09/27 03:40:48;;;;;;;5.80;3.58;;;9.70;99.90;;;;;;7391292;32;20131;-61
2022/09/27 03:44:50;;;;;;;6.60;3.55;;;9.70;99.90;;;;;;7397560;32;20189;-61
2022/09/27 03:48:52;;;;;;;8.15;2.62;;;9.70;99.90;;;;;;7388492;32;20110;-61
2022/09/27 03:52:53;;;;;;;7.62;2.42;;;9.70;99.90;;;;;;7397913;32;20145;-61
2022/09/27 03:56:55;;;;;;;6.18;2.37;;;9.70;99.90;;;;;;7395730;32;20190;-60
2022/09/27 04:00:57;;;;;;;7.03;1.92;;;9.60;99.90;;;;;;7402793;32;20102;-60
2022/09/27 04:04:59;;;;;;;4.72;2.15;;;9.60;99.90;;;;;;7390007;32;20109;-62
2022/09/27 04:09:01;;;;;;;7.93;2.30;;;9.60;99.90;;;;;;7388993;32;20118;-61
2022/09/27 04:13:04;;;;;;;8.23;2.42;;;9.50;99.90;;;;;;7397026;32;20655;-60
2022/09/27 04:17:06;;;;;;;6.97;2.28;;;9.50;99.90;;;;;;7389950;32;20110;-60
2022/09/27 04:21:08;;;;;;;5.62;2.65;;;9.40;99.90;;;;;;7390433;32;20440;-61
2022/09/27 04:25:10;;;;;;;5.28;2.20;;;9.40;99.90;;;;;;7395204;32;20209;-61
2022/09/27 04:29:12;;;;;;;6.22;2.22;;;9.40;99.90;;;;;;7396473;32;20212;-60
2022/09/27 04:33:14;;;;;;;8.68;2.00;;;9.40;99.90;;;;;;7397788;32;20149;-60
2022/09/27 04:37:16;;;;;;;7.07;1.85;;;9.40;99.90;;;;;;7390948;32;20140;-60
2022/09/27 04:41:18;;;;;;;5.57;1.40;;;9.40;99.90;;;;;;7389346;32;20111;-60
2022/09/27 04:45:20;;;;;;;6.10;1.42;;;9.30;99.90;;;;;;7399909;32;20146;-61
2022/09/27 04:49:21;;;;;;;7.25;1.45;;;9.20;99.90;;;;;;7402570;32;20109;-60
2022/09/27 04:53:24;;;;;;;4.75;1.15;;;9.10;99.90;;;;;;7401706;32;20114;-62
2022/09/27 04:57:25;;;;;;;4.65;1.10;;;9.10;99.90;;;;;;7401595;32;20133;-60
2022/09/27 05:01:27;;;;;;;3.60;1.00;;;9.10;99.90;;;;;;7393299;32;20122;-60
2022/09/27 05:05:29;;;;;;;5.70;1.27;;;9.00;99.90;;;;;;7393620;32;20122;-63
2022/09/27 05:09:30;;;;;;;7.97;1.20;;;9.00;99.90;;;;;;7400229;32;20122;-60
2022/09/27 05:13:32;;;;;;;4.97;1.15;;;9.00;99.90;;;;;;7396766;32;20885;-61
2022/09/27 05:17:34;;;;;;;3.50;1.08;;;9.00;99.90;;;;;;7397992;32;20141;-59
2022/09/27 05:21:35;;;;;;;6.37;1.15;;;9.00;99.90;;;;;;7403029;32;20163;-61
2022/09/27 05:25:37;;;;;;;3.28;1.00;;;9.00;99.90;;;;;;7390983;32;20166;-61
2022/09/27 05:29:39;;;;;;;4.50;1.05;;;9.00;99.90;;;;;;7388331;32;20122;-63
2022/09/27 05:33:41;;;;;;;3.17;0.88;;;9.00;99.90;;;;;;7393506;32;20171;-64
2022/09/27 05:37:43;;;;;;;3.03;0.90;;;9.00;99.90;;;;;;7394844;32;20197;-64
2022/09/27 05:41:46;;;;;;;10.00;1.77;;;8.90;99.90;;;;;;7397861;32;20136;-65
2022/09/27 05:45:49;;;;;;;6.93;1.10;;;8.90;99.90;;;;;;7391776;31;20578;-62
2022/09/27 05:49:51;;;;;;;5.50;1.02;;;8.90;99.90;;;;;;7402242;31;20169;-65
2022/09/27 05:53:53;;;;;;;5.28;1.23;;;8.90;99.90;;;;;;7397608;32;20201;-65
2022/09/27 05:58:03;;;;;;;8.82;0.90;;;8.90;99.90;;;;;;7393618;32;20140;-64
2022/09/27 06:02:05;;;;;;;5.97;1.23;;;8.90;99.90;;;;;;7394836;32;20484;-64
2022/09/27 06:06:09;;;;;;;4.40;0.82;;;8.90;99.90;;;;;;7392756;32;20142;-63
2022/09/27 06:10:11;;;;;;;4.12;0.95;;;8.90;99.90;;;;;;7397108;32;20191;-64
2022/09/27 06:14:12;;;;;;;4.43;0.70;;;9.00;99.90;;;;;;7392815;32;20202;-64
2022/09/27 06:18:16;;;;;;;4.35;0.90;;;9.00;99.90;;;;;;7401637;32;20505;-63
2022/09/27 06:22:18;;;;;;;7.25;1.10;;;9.00;99.90;;;;;;7399308;32;20753;-64
2022/09/27 06:26:20;;;;;;;5.32;1.02;;;9.10;99.90;;;;;;7406249;32;20510;-64
2022/09/27 06:30:22;;;;;;;3.28;0.85;;;9.10;99.90;;;;;;7400778;31;20162;-64
2022/09/27 06:34:24;;;;;;;2.47;0.60;;;9.10;99.90;;;;;;7393716;32;20507;-62
2022/09/27 06:38:25;;;;;;;3.35;0.82;;;9.20;99.90;;;;;;7398378;32;20178;-62
2022/09/27 06:42:28;;;;;;;3.03;0.93;;;9.20;99.90;;;;;;7391320;32;20237;-65
2022/09/27 06:46:30;;;;;;;3.75;1.08;;;9.30;99.90;;;;;;7398140;32;20134;-64
2022/09/27 06:50:35;;;;;;;4.35;0.80;;;9.30;99.90;;;;;;7392731;32;20259;-66
2022/09/27 06:54:36;;;;;;;6.57;1.17;;;9.30;99.90;;;;;;7393579;32;20134;-64
2022/09/27 07:03:01;;;;;;;3.25;0.60;;;9.20;99.90;;;;;;7394441;32;20186;-66
2022/09/27 07:07:03;;;;;;;2.12;0.80;;;9.20;99.90;;;;;;7395911;32;20139;-64
2022/09/27 07:11:06;;;;;;;5.00;0.90;;;9.20;99.90;;;;;;7394915;32;20142;-64
2022/09/27 07:15:08;;;;;;;3.55;0.73;;;9.20;99.90;;;;;;7394276;32;20106;-64
2022/09/27 07:19:12;;;;;;;7.68;1.05;;;9.20;99.90;;;;;;7390491;32;20107;-63
2022/09/27 07:23:15;;;;;;;1.83;0.85;;;9.30;99.90;;;;;;7386623;32;20628;-63
2022/09/27 07:27:17;;;;;;;3.45;1.00;;;9.30;99.90;;;;;;7391660;32;20134;-66
2022/09/27 07:31:19;;;;;;;4.60;0.65;;;9.40;99.90;;;;;;7390415;32;20177;-64
2022/09/27 07:35:20;;;;;;;2.47;0.80;;;9.50;99.90;;;;;;7397160;32;20140;-63
2022/09/27 07:39:22;;;;;;;1.75;0.65;;;9.50;99.90;;;;;;7394028;32;20111;-63
2022/09/27 07:43:24;;;;;;;3.15;0.80;;;9.50;99.90;;;;;;7397339;32;20605;-65
2022/09/27 07:47:26;;;;;;;4.65;0.90;;;9.50;99.90;;;;;;7394030;32;20511;-64
2022/09/27 07:51:28;;;;;;;6.18;1.25;;;9.60;99.90;;;;;;7393145;32;20107;-63
2022/09/27 07:55:30;;;;;;;2.47;0.80;;;9.60;99.90;;;;;;7401162;32;20152;-64
2022/09/27 07:59:32;;;;;;;4.00;0.82;;;9.70;99.90;;;;;;7389912;32;20110;-65
2022/09/27 08:03:33;;;;;;;3.80;0.57;;;9.60;99.90;;;;;;7392892;32;20252;-63
2022/09/27 08:07:37;;;;;;;2.70;0.70;;;9.70;99.90;;;;;;7394131;32;20186;-63
2022/09/27 08:11:39;;;;;;;2.00;0.50;;;9.70;99.90;;;;;;7398155;32;20127;-64
2022/09/27 08:15:41;;;;;;;1.65;0.55;;;9.80;99.90;;;;;;7405798;32;20103;-63
2022/09/27 08:19:44;;;;;;;1.87;0.50;;;9.80;99.90;;;;;;7378437;32;20111;-63
2022/09/27 08:23:45;;;;;;;4.53;0.98;;;9.80;99.90;;;;;;7396873;32;20120;-64
2022/09/27 08:27:58;;;;;;;1.92;0.60;;;9.90;99.90;;;;;;7395520;32;20103;-65
2022/09/27 08:32:00;;;;;;;1.60;0.40;;;9.90;99.90;;;;;;7390616;32;20230;-65
2022/09/27 08:36:02;;;;;;;1.40;0.50;;;9.90;99.90;;;;;;7397035;32;20094;-64
2022/09/27 08:40:05;;;;;;;3.83;0.65;;;9.90;99.90;;;;;;7392907;32;20641;-65
2022/09/27 08:44:56;;;;;;;2.72;0.70;;;10.00;99.90;;;;;;7394650;31;20129;-64
2022/09/27 08:49:17;;;;;;;1.58;0.60;;;10.10;99.90;;;;;;7399052;31;20205;-64
2022/09/27 08:53:45;;;;;;;3.30;0.50;;;10.10;99.90;;;;;;7393418;32;20173;-64
2022/09/27 08:57:55;;;;;;;1.10;0.60;;;10.20;99.90;;;;;;7377730;32;20098;-64
2022/09/27 09:01:58;;;;;;;3.08;0.82;;;10.20;99.90;;;;;;7391207;32;20118;-65
2022/09/27 09:06:08;;;;;;;0.95;0.43;;;10.20;99.90;;;;;;7394770;32;20102;-64
2022/09/27 09:14:50;;;;;;;2.87;0.80;;;10.10;99.90;;;;;;7390583;32;20129;-64
2022/09/27 09:19:04;;;;;;;1.55;0.40;;;10.00;99.90;;;;;;7394345;32;20150;-65
2022/09/27 09:23:34;;;;;;;2.22;0.73;;;9.90;99.90;;;;;;7395011;32;20106;-63
2022/09/27 09:27:50;;;;;;;2.05;0.70;;;10.00;99.90;;;;;;7390256;32;20102;-62
2022/09/27 09:31:58;;;;;;;1.17;0.70;;;10.00;99.90;;;;;;7389675;32;20121;-64
2022/09/27 09:36:31;;;;;;;1.20;0.77;;;10.00;99.90;;;;;;7393440;31;20429;-64
2022/09/27 09:40:37;;;;;;;2.28;1.00;;;10.10;99.90;;;;;;7388178;31;20177;-64
2022/09/27 09:44:53;;;;;;;2.78;1.20;;;10.20;99.90;;;;;;7392585;32;20260;-66
2022/09/27 09:48:59;;;;;;;4.07;1.40;;;10.40;99.90;;;;;;7386285;32;20194;-63
2022/09/27 09:53:22;;;;;;;2.92;1.30;;;10.60;99.90;;;;;;7392600;32;20459;-63
2022/09/27 09:57:42;;;;;;;5.28;1.50;;;10.60;99.90;;;;;;7389980;32;20212;-63
2022/09/27 10:01:47;;;;;;;3.95;1.60;;;10.70;99.90;;;;;;7392723;32;20202;-61
2022/09/27 10:05:49;;;;;;;2.15;1.30;;;10.80;99.90;;;;;;7392221;32;20118;-65
2022/09/27 10:09:53;;;;;;;2.97;1.55;;;10.90;99.90;;;;;;7391546;31;20185;-63
2022/09/27 10:13:55;;;;;;;4.00;1.42;;;11.00;99.90;;;;;;7384367;32;20209;-64
2022/09/27 10:17:58;;;;;;;2.15;1.27;;;11.00;99.90;;;;;;7390101;32;20103;-64
2022/09/27 10:22:09;;;;;;;3.33;1.45;;;11.20;99.90;;;;;;7390250;32;20095;-63
2022/09/27 10:26:11;;;;;;;5.12;1.67;;;11.30;99.90;;;;;;7386220;32;20230;-66
2022/09/27 10:30:34;;;;;;;4.03;1.00;;;11.40;99.90;;;;;;7384685;32;20462;-64
2022/09/27 10:34:40;;;;;;;3.28;0.80;;;11.50;99.90;;;;;;7394317;32;20103;-63
2022/09/27 10:38:51;;;;;;;2.62;0.68;;;11.40;99.90;;;;;;7390308;32;20533;-65
2022/09/27 10:42:53;;;;;;;3.17;1.30;;;11.40;99.90;;;;;;7394671;31;20133;-63
2022/09/27 10:47:00;;;;;;;2.95;1.10;;;11.50;99.90;;;;;;7386734;32;20204;-63
2022/09/27 10:51:05;;;;;;;4.35;1.40;;;11.30;99.90;;;;;;7392723;32;20121;-64
2022/09/27 10:55:23;;;;;;;2.00;0.80;;;11.30;99.90;;;;;;7396285;32;20106;-65
2022/09/27 10:59:26;;;;;;;2.75;0.93;;;11.40;99.90;;;;;;7392406;32;20212;-65
2022/09/27 11:03:31;;;;;;;2.40;0.70;;;11.30;99.90;;;;;;7378628;32;20617;-63
2022/09/27 11:07:36;;;;;;;2.60;0.90;;;11.20;99.90;;;;;;7387883;32;20121;-63
2022/09/27 11:11:37;;;;;;;3.62;1.10;;;11.30;99.90;;;;;;7398624;32;20148;-63
2022/09/27 11:15:45;;;;;;;5.03;1.20;;;11.40;99.90;;;;;;7388140;32;20220;-63
2022/09/27 11:19:56;;;;;;;4.12;1.10;;;11.30;99.90;;;;;;7392650;32;20447;-64
2022/09/27 11:24:40;;;;;;;4.20;1.80;;;11.20;99.90;;;;;;7396314;32;20194;-62
2022/09/27 11:29:03;;;;;;;3.58;1.62;;;11.40;99.90;;;;;;7393343;32;20169;-65
2022/09/27 11:33:14;;;;;;;3.62;1.42;;;11.60;99.90;;;;;;7391191;32;20789;-64
2022/09/27 11:37:35;;;;;;;2.92;1.70;;;11.70;99.90;;;;;;7391500;32;20118;-64
2022/09/27 11:41:51;;;;;;;2.55;1.40;;;11.60;99.90;;;;;;7389619;32;20107;-64
2022/09/27 11:46:08;;;;;;;2.72;1.50;;;11.80;99.90;;;;;;7388191;32;20160;-66
2022/09/27 11:50:46;;;;;;;4.37;1.98;;;11.80;99.90;;;;;;7381518;32;20111;-67
2022/09/27 11:55:09;;;;;;;2.87;1.75;;;11.80;99.90;;;;;;7383570;32;20149;-64
2022/09/27 11:59:33;;;;;;;3.70;1.70;;;11.70;99.90;;;;;;7376450;32;20289;-65
2022/09/27 12:04:10;;;;;;;1.40;1.27;;;11.60;99.90;;;;;;7386453;32;20322;-65
2022/09/27 12:08:16;;;;;;;;;;;11.80;99.90;;;;;;7387538;32;20561;-66
2022/09/27 12:12:19;;;;;;;6.18;2.30;;;11.70;99.90;;;;;;7388219;32;20109;-64
2022/09/27 12:16:24;;;;;;;5.10;2.10;;;11.70;99.90;;;;;;7388280;32;20142;-65
2022/09/27 12:20:33;;;;;;;3.05;1.75;;;11.70;99.90;;;;;;7384366;32;20206;-64
2022/09/27 12:24:35;;;;;;;2.55;1.52;;;11.60;99.90;;;;;;7395313;32;20193;-64
2022/09/27 12:28:53;;;;;;;3.15;1.77;;;11.50;99.90;;;;;;7383381;32;20110;-66
2022/09/27 12:33:13;;;;;;;2.22;1.60;;;11.60;99.90;;;;;;7391314;32;20257;-66
2022/09/27 12:37:22;;;;;;;2.12;1.52;;;11.60;99.90;;;;;;7386984;32;20198;-64
2022/09/27 12:41:27;;;;;;;2.10;1.70;;;11.70;99.90;;;;;;7388302;32;20532;-64
2022/09/27 12:45:56;;;;;;;4.32;1.67;;;11.70;99.90;;;;;;7391940;32;20111;-66
2022/09/27 12:50:23;;;;;;;3.87;2.00;;;11.60;99.90;;;;;;7385764;32;20111;-65
2022/09/27 12:54:56;;;;;;;4.32;2.62;;;11.20;99.90;;;;;;7394414;32;20545;-64
2022/09/27 12:59:10;;;;;;;2.28;1.73;;;11.00;99.90;;;;;;7385756;32;20183;-65
2022/09/27 13:03:39;;;;;;;2.50;1.85;;;10.80;99.90;;;;;;7394092;32;20164;-63
2022/09/27 13:07:51;;;;;;;1.80;1.60;;;10.80;99.90;;;;;;7400104;32;20582;-64
2022/09/27 13:12:13;;;;;;;2.78;1.85;;;10.70;99.90;;;;;;7399547;32;20630;-65
2022/09/27 13:16:15;;;;;;;1.55;1.15;;;10.80;99.90;;;;;;7390818;32;20748;-64
2022/09/27 13:20:35;;;;;;;2.30;1.15;;;10.80;99.90;;;;;;7397152;32;20125;-64
2022/09/27 13:24:40;;;;;;;1.30;0.70;;;10.80;99.90;;;;;;7395845;32;20230;-65
2022/09/27 13:28:50;;;;;;;0.73;0.43;;;11.00;99.90;;;;;;7398889;32;20099;-68
2022/09/27 13:33:15;;;;;;;0.98;0.40;;;11.10;99.90;;;;;;7396581;32;20187;-65
2022/09/27 13:38:08;;;;;;;0.70;0.30;;;11.10;99.90;;;;;;7401779;32;20197;-63
2022/09/27 13:42:32;;;;;;;1.05;0.30;;;11.10;99.90;;;;;;7371880;32;20171;-64
2022/09/27 13:46:35;;;;;;;1.25;0.40;;;11.20;99.90;;;;;;7394042;32;20126;-65
2022/09/27 13:51:17;;;;;;;1.23;0.35;;;11.30;99.90;;;;;;7386528;31;20689;-64
2022/09/27 13:55:41;;;;;;;2.22;0.30;;;11.20;99.90;;;;;;7396927;32;20102;-64
2022/09/27 13:59:49;;;;;;;1.00;0.30;;;11.10;99.90;;;;;;7397758;32;20229;-63
2022/09/27 14:03:59;;;;;;;2.40;1.58;;;11.30;99.90;;;;;;7396084;32;20139;-64
2022/09/27 14:08:03;;;;;;;1.10;0.40;;;11.40;99.90;;;;;;7391108;32;20241;-64
2022/09/27 14:12:10;;;;;;;0.90;0.32;;;11.50;99.90;;;;;;7392526;32;20202;-65
2022/09/27 14:16:15;;;;;;;1.10;0.40;;;11.40;99.90;;;;;;7396414;32;20126;-66
2022/09/27 14:20:40;;;;;;;1.30;0.30;;;11.60;99.90;;;;;;7395099;32;20182;-64
2022/09/27 14:24:49;;;;;;;4.78;0.70;;;11.80;99.90;;;;;;7393114;32;20550;-66
2022/09/27 14:28:51;;;;;;;1.40;0.40;;;11.80;99.90;;;;;;7392355;32;20178;-64
2022/09/27 14:32:54;;;;;;;2.37;0.30;;;11.90;99.90;;;;;;7393078;32;20099;-64
2022/09/27 14:41:17;;;;;;;2.05;0.20;;;12.00;99.90;;;;;;7393412;32;20126;-65
2022/09/27 14:45:19;;;;;;;1.15;0.37;;;11.80;99.90;;;;;;7387290;31;20125;-64
2022/09/27 14:49:23;;;;;;;6.20;0.28;;;11.70;99.90;;;;;;7391378;32;20095;-65
2022/09/27 14:53:26;;;;;;;2.05;0.30;;;11.80;99.90;;;;;;7393927;32;20127;-64
2022/09/27 14:57:31;;;;;;;2.22;0.22;;;12.00;99.90;;;;;;7384412;31;20102;-65
2022/09/27 15:01:34;;;;;;;2.47;0.40;;;12.10;99.90;;;;;;7393665;32;21162;-65
2022/09/27 15:05:40;;;;;;;1.75;0.50;;;11.90;99.90;;;;;;7393531;31;20197;-65
2022/09/27 15:09:44;;;;;;;2.55;0.28;;;11.90;99.90;;;;;;7394052;31;20178;-66
2022/09/27 15:13:50;;;;;;;2.20;0.40;;;11.70;99.90;;;;;;7388740;32;20244;-65
2022/09/27 15:17:52;;;;;;;0.97;0.27;;;11.70;99.90;;;;;;7399013;32;20102;-64
2022/09/27 15:21:58;;;;;;;2.58;0.57;;;11.70;99.90;;;;;;7399429;32;20118;-65
2022/09/27 15:26:20;;;;;;;4.72;0.50;;;11.70;99.90;;;;;;7394325;32;20107;-65
2022/09/27 15:30:34;;;;;;;3.10;0.68;;;11.60;99.90;;;;;;7393433;32;20106;-65
2022/09/27 15:34:36;;;;;;;4.32;0.80;;;11.60;99.90;;;;;;7392455;32;20653;-65
2022/09/27 15:38:47;;;;;;;4.15;0.88;;;11.50;99.90;;;;;;7389280;32;20107;-65
2022/09/27 15:43:00;;;;;;;2.12;0.88;;;11.30;99.90;;;;;;7392730;32;20878;-67
2022/09/27 15:47:02;;;;;;;5.15;1.00;;;11.20;99.90;;;;;;7386431;32;20522;-64
2022/09/27 15:51:40;;;;;;;3.45;1.00;;;11.10;99.90;;;;;;7394780;32;20110;-66
2022/09/27 15:55:44;;;;;;;3.90;1.23;;;11.00;99.90;;;;;;7396226;32;20107;-65
2022/09/27 15:59:45;;;;;;;3.83;1.20;;;11.00;99.90;;;;;;7394192;32;20203;-65
2022/09/27 16:03:48;;;;;;;3.85;1.10;;;10.80;99.90;;;;;;7391784;32;20202;-65
2022/09/27 16:07:52;;;;;;;3.50;1.00;;;10.60;99.90;;;;;;7387151;32;21053;-65
2022/09/27 16:11:54;;;;;;;2.55;1.10;;;10.50;99.90;;;;;;7390185;32;20091;-65
2022/09/27 16:15:56;;;;;;;3.95;1.75;;;10.40;99.90;;;;;;7391266;32;20209;-65
2022/09/27 16:19:58;;;;;;;3.78;1.67;;;10.30;99.90;;;;;;7386550;32;20694;-65
2022/09/27 16:24:01;;;;;;;3.80;2.10;;;10.20;99.90;;;;;;7390090;32;20115;-66
2022/09/27 16:28:23;;;;;;;3.22;1.40;;;10.10;99.90;;;;;;7388953;32;20208;-66
2022/09/27 16:32:24;;;;;;;5.60;1.70;;;10.10;99.90;;;;;;7399274;32;20217;-66
2022/09/27 16:36:26;;;;;;;3.10;1.08;;;10.00;99.90;;;;;;7386198;32;20266;-66
2022/09/27 16:40:28;;;;;;;3.47;1.27;;;10.00;99.90;;;;;;7386080;32;20221;-65
2022/09/27 16:44:33;;;;;;;2.75;1.05;;;10.00;99.90;;;;;;7394190;32;20175;-64
2022/09/27 16:48:35;;;;;;;3.90;1.00;;;9.90;99.90;;;;;;7401687;31;20099;-64
2022/09/27 16:52:37;;;;;;;4.25;1.12;;;9.80;99.90;;;;;;7396776;32;20099;-67
2022/09/27 16:56:39;;;;;;;2.47;0.80;;;9.80;99.90;;;;;;7390882;32;20103;-68
2022/09/27 17:00:42;;;;;;;2.40;1.00;;;9.80;99.90;;;;;;7397476;32;20124;-65
2022/09/27 17:04:43;;;;;;;4.15;1.45;;;9.80;99.90;;;;;;7386297;32;20557;-66
2022/09/27 17:08:45;;;;;;;2.33;1.05;;;9.80;99.90;;;;;;7389122;32;20114;-65
2022/09/27 17:12:48;;;;;;;8.65;1.52;;;9.80;99.90;;;;;;7390192;32;20403;-65
2022/09/27 17:16:50;;;;;;;4.93;1.75;;;9.80;99.90;;;;;;7391694;32;20125;-65
2022/09/27 17:20:51;;;;;;;7.40;2.05;;;9.80;99.90;;;;;;7392547;32;20129;-67
2022/09/27 17:24:53;;;;;;;3.90;1.85;;;9.70;99.90;;;;;;7376237;32;20246;-65
2022/09/27 17:28:56;;;;;;;4.18;1.62;;;9.60;99.90;;;;;;7391731;32;20179;-66
2022/09/27 17:32:57;;;;;;;9.93;2.30;;;9.50;99.90;;;;;;7396500;32;20121;-63
2022/09/27 17:36:59;;;;;;;3.47;1.65;;;9.40;99.90;;;;;;7394514;32;20099;-64
2022/09/27 17:41:03;;;;;;;5.03;1.73;;;9.50;99.90;;;;;;7385304;32;20114;-63
2022/09/27 17:45:05;;;;;;;6.80;1.85;;;9.50;99.90;;;;;;7388066;32;20220;-64
2022/09/27 17:53:29;;;;;;;3.50;1.20;;;9.50;99.90;;;;;;7393182;32;20103;-65
2022/09/27 17:57:36;;;;;;;2.75;1.37;;;9.40;99.90;;;;;;7390202;32;20360;-65
2022/09/27 18:01:38;;;;;;;7.40;1.90;;;9.50;99.90;;;;;;7393554;32;20121;-64
2022/09/27 18:05:41;;;;;;;4.90;1.30;;;9.50;99.90;;;;;;7394260;32;20285;-66
2022/09/27 18:09:42;;;;;;;4.07;1.40;;;9.40;99.90;;;;;;7399593;31;20103;-65
2022/09/27 18:13:44;;;;;;;8.85;2.87;;;9.50;99.90;;;;;;7393002;32;20107;-63
2022/09/27 18:17:49;;;;;;;5.12;1.42;;;9.50;99.90;;;;;;7398721;32;20469;-64
2022/09/27 18:21:56;;;;;;;3.33;1.37;;;9.50;99.90;;;;;;7391866;32;20200;-65
2022/09/27 18:25:58;;;;;;;3.50;1.62;;;9.50;99.90;;;;;;7391253;32;21993;-65
2022/09/27 18:30:02;;;;;;;5.22;1.42;;;9.40;99.90;;;;;;7391345;32;20111;-64
2022/09/27 18:34:03;;;;;;;3.05;1.60;;;9.50;99.90;;;;;;7393565;32;20128;-63
2022/09/27 18:38:05;;;;;;;6.00;1.35;;;9.40;99.90;;;;;;7390480;32;20777;-65
2022/09/27 18:42:07;;;;;;;3.55;1.58;;;9.50;99.90;;;;;;7398287;32;20190;-66
2022/09/27 18:46:12;;;;;;;4.07;1.67;;;9.40;99.90;;;;;;7395054;32;20122;-64
2022/09/27 18:50:35;;;;;;;8.52;2.22;;;9.40;99.90;;;;;;7386625;32;20233;-63
2022/09/27 18:54:39;;;;;;;4.97;2.05;;;9.30;99.90;;;;;;7397300;32;20215;-66
2022/09/27 18:58:41;;;;;;;5.45;2.47;;;9.30;99.90;;;;;;7398047;32;20107;-63
2022/09/27 19:02:43;;;;;;;10.43;3.05;;;9.30;99.90;;;;;;7394439;31;20099;-65
2022/09/27 19:06:45;;;;;;;5.62;2.50;;;9.30;99.90;;;;;;7392886;31;20137;-64
2022/09/27 19:10:46;;;;;;;7.43;3.50;;;9.30;99.90;;;;;;7394424;32;20213;-64
2022/09/27 19:14:48;;;;;;;9.50;2.78;;;9.20;99.90;;;;;;7389394;32;20545;-64
2022/09/27 19:18:50;;;;;;;9.50;3.08;;;9.20;99.90;;;;;;7390966;32;20099;-65
2022/09/27 19:22:52;;;;;;;8.95;3.17;;;9.20;99.90;;;;;;7389053;32;20609;-63
2022/09/27 19:26:56;;;;;;;8.48;3.65;;;9.20;99.90;;;;;;7392066;32;20546;-65
2022/09/27 19:30:57;;;;;;;10.00;3.45;;;9.10;99.90;;;;;;7398126;32;20201;-66
2022/09/27 19:34:59;;;;;;;8.45;3.53;;;9.20;99.90;;;;;;7394284;32;20790;-63
2022/09/27 19:39:01;;;;;;;6.25;3.25;;;9.20;99.90;;;;;;7385152;32;20102;-64
2022/09/27 19:43:03;;;;;;;6.32;2.87;;;9.20;99.90;;;;;;7397850;32;20213;-66
2022/09/27 19:47:04;;;;;;;5.05;2.60;;;9.20;99.90;;;;;;7390859;32;20110;-63
2022/09/27 19:51:08;;;;;;;10.68;4.10;;;9.20;99.90;;;;;;7389951;32;20525;-62
2022/09/27 19:55:09;;;;;;;49.20;30.65;;;9.20;99.90;;;;;;7389739;32;20113;-64
2022/09/27 19:59:11;;;;;;;45.10;29.73;;;9.20;99.90;;;;;;7391279;32;20352;-65
2022/09/27 20:03:13;;;;;;;8.68;5.18;;;9.10;99.90;;;;;;7392984;32;20196;-64
2022/09/27 20:07:14;;;;;;;4.65;3.50;;;9.20;99.90;;;;;;7393603;32;20103;-63
2022/09/27 20:11:21;;;;;;;7.15;3.47;;;9.20;99.90;;;;;;7391697;32;20099;-66
2022/09/27 20:15:23;;;;;;;6.47;3.28;;;9.20;99.90;;;;;;7394415;32;20102;-61
2022/09/27 20:19:24;;;;;;;8.57;4.25;;;9.20;99.90;;;;;;7386713;32;20110;-62
2022/09/27 20:23:27;;;;;;;6.18;4.53;;;9.10;99.90;;;;;;7388020;32;20568;-62
2022/09/27 20:27:29;;;;;;;8.23;4.90;;;9.20;99.90;;;;;;7386760;32;20274;-64
2022/09/27 20:31:35;;;;;;;10.68;5.53;;;9.10;99.90;;;;;;7396014;32;20129;-62
2022/09/27 20:35:37;;;;;;;8.57;6.15;;;9.10;99.90;;;;;;7390572;32;20687;-61
2022/09/27 20:39:39;;;;;;;11.32;6.43;;;9.00;99.90;;;;;;7395119;32;20103;-65
2022/09/27 20:43:41;;;;;;;8.77;6.37;;;9.00;99.90;;;;;;7385185;32;20444;-61
2022/09/27 20:47:42;;;;;;;13.00;6.82;;;9.00;99.90;;;;;;7390497;32;20099;-62
2022/09/27 20:51:50;;;;;;;7.53;6.00;;;9.00;99.90;;;;;;7397141;32;20545;-61
2022/09/27 20:55:56;;;;;;;10.60;7.03;;;9.00;99.90;;;;;;7394834;32;20162;-64
2022/09/27 20:59:57;;;;;;;9.50;7.07;;;9.00;99.90;;;;;;7400308;32;20189;-62
2022/09/27 21:04:03;;;;;;;11.12;6.95;;;9.10;99.90;;;;;;7398719;32;20136;-61
2022/09/27 21:08:05;;;;;;;12.27;7.05;;;9.10;99.90;;;;;;7391031;32;20129;-62
2022/09/27 21:12:07;;;;;;;10.55;7.35;;;9.00;99.90;;;;;;7391686;32;20107;-62
2022/09/27 21:16:11;;;;;;;14.05;7.87;;;8.90;99.90;;;;;;7398357;32;20102;-63
2022/09/27 21:20:15;;;;;;;9.53;6.77;;;9.00;99.90;;;;;;7395517;32;20119;-64
2022/09/27 21:24:16;;;;;;;8.65;5.75;;;8.90;99.90;;;;;;7404593;31;20102;-63
2022/09/27 21:28:18;;;;;;;9.73;6.18;;;9.00;99.90;;;;;;7398339;32;20111;-63
2022/09/27 21:32:20;;;;;;;10.55;5.40;;;9.00;99.90;;;;;;7403336;32;20126;-64
2022/09/27 21:36:23;;;;;;;7.35;5.00;;;9.10;99.90;;;;;;7397099;32;20788;-63
2022/09/27 21:40:26;;;;;;;8.70;4.93;;;9.10;99.90;;;;;;7390038;32;20221;-61
2022/09/27 21:44:28;;;;;;;7.35;5.22;;;9.10;99.90;;;;;;7388287;32;20235;-61
2022/09/27 21:48:30;;;;;;;7.12;5.57;;;9.10;99.90;;;;;;7398905;32;20106;-61
2022/09/27 21:52:32;;;;;;;8.40;5.57;;;9.00;99.90;;;;;;7393331;31;20098;-61